createdAt,value
2022-10-23T00:00:01.330Z,1018.7
2022-10-23T00:01:11.319Z,1018.7
2022-10-23T00:02:01.333Z,1018.7
2022-10-23T00:03:01.266Z,1018.7
2022-10-23T00:04:03.146Z,1018.7
2022-10-23T00:05:01.301Z,1018.7
2022-10-23T00:06:03.607Z,1018.8
2022-10-23T00:07:01.287Z,1018.8
2022-10-23T00:08:00.913Z,1018.8
2022-10-23T00:09:02.629Z,1018.8
2022-10-23T00:10:01.543Z,1018.8
2022-10-23T00:11:06.224Z,1018.7
2022-10-23T00:12:01.235Z,1018.7
2022-10-23T00:13:01.065Z,1018.7
2022-10-23T00:14:03.792Z,1018.7
2022-10-23T00:15:01.272Z,1018.7
2022-10-23T00:16:00.968Z,1018.7
2022-10-23T00:17:00.964Z,1018.7
2022-10-23T00:18:01.376Z,1018.7
2022-10-23T00:19:01.430Z,1018.7
2022-10-23T00:20:01.224Z,1018.7
2022-10-23T00:21:02.527Z,1018.7
2022-10-23T00:22:01.422Z,1018.7
2022-10-23T00:23:01.239Z,1018.7
2022-10-23T00:24:01.599Z,1018.7
2022-10-23T00:25:01.573Z,1018.7
2022-10-23T00:26:02.212Z,1018.7
2022-10-23T00:27:01.233Z,1018.7
2022-10-23T00:28:00.944Z,1018.7
2022-10-23T00:29:01.336Z,1018.7
2022-10-23T00:30:02.511Z,1018.7
2022-10-23T00:31:01.926Z,1018.7
2022-10-23T00:32:01.201Z,1018.7
2022-10-23T00:33:01.156Z,1018.7
2022-10-23T00:34:01.495Z,1018.7
2022-10-23T00:35:01.244Z,1018.7
2022-10-23T00:36:04.681Z,1018.7
2022-10-23T00:37:01.360Z,1018.8
2022-10-23T00:38:01.205Z,1018.7
2022-10-23T00:39:01.244Z,1018.7
2022-10-23T00:40:01.276Z,1018.7
2022-10-23T00:41:01.250Z,1018.7
2022-10-23T00:42:01.268Z,1018.8
2022-10-23T00:43:01.394Z,1018.7
2022-10-23T00:44:07.395Z,1018.8
2022-10-23T00:45:14.491Z,1018.8
2022-10-23T00:46:01.676Z,1018.8
2022-10-23T00:47:01.216Z,1018.8
2022-10-23T00:48:02.361Z,1018.8
2022-10-23T00:49:02.693Z,1018.8
2022-10-23T00:50:00.995Z,1018.8
2022-10-23T00:51:01.361Z,1018.8
2022-10-23T00:52:04.476Z,1018.8
2022-10-23T00:53:03.629Z,1018.8
2022-10-23T00:54:22.980Z,1018.8
2022-10-23T00:55:01.874Z,1018.8
2022-10-23T00:56:01.251Z,1018.8
2022-10-23T00:57:03.511Z,1018.8
2022-10-23T00:58:01.733Z,1018.8
2022-10-23T00:59:01.246Z,1018.8
2022-10-23T01:00:01.041Z,1018.8
2022-10-23T01:01:02.017Z,1018.9
2022-10-23T01:02:01.059Z,1018.7
2022-10-23T01:03:00.951Z,1018.8
2022-10-23T01:04:02.588Z,1018.8
2022-10-23T01:05:01.270Z,1018.8
2022-10-23T01:06:07.800Z,1018.8
2022-10-23T01:07:09.000Z,1018.7
2022-10-23T01:08:06.897Z,1018.7
2022-10-23T01:09:12.018Z,1018.7
2022-10-23T01:10:09.411Z,1018.8
2022-10-23T01:11:09.551Z,1018.7
2022-10-23T01:12:09.610Z,1018.8
2022-10-23T01:13:07.902Z,1018.8
2022-10-23T01:14:11.442Z,1018.8
2022-10-23T01:15:10.548Z,1018.8
2022-10-23T01:16:06.587Z,1018.8
2022-10-23T01:17:08.694Z,1018.8
2022-10-23T01:18:06.847Z,1018.8
2022-10-23T01:19:11.577Z,1018.8
2022-10-23T01:20:13.360Z,1018.8
2022-10-23T01:21:08.556Z,1018.8
2022-10-23T01:22:17.714Z,1018.9
2022-10-23T01:23:13.791Z,1018.8
2022-10-23T01:24:12.313Z,1018.8
2022-10-23T01:25:11.304Z,1018.8
2022-10-23T01:26:14.448Z,1018.8
2022-10-23T01:27:20.039Z,1018.8
2022-10-23T01:28:05.805Z,1018.8
2022-10-23T01:29:06.610Z,1018.8
2022-10-23T01:30:05.475Z,1018.8
2022-10-23T01:31:07.014Z,1018.8
2022-10-23T01:32:06.343Z,1018.7
2022-10-23T01:33:06.006Z,1018.7
2022-10-23T01:34:09.260Z,1018.8
2022-10-23T01:35:05.767Z,1018.8
2022-10-23T01:36:04.829Z,1018.9
2022-10-23T01:37:04.546Z,1018.8
2022-10-23T01:38:08.744Z,1018.8
2022-10-23T01:39:06.284Z,1018.8
2022-10-23T01:40:04.985Z,1018.9
2022-10-23T01:41:06.841Z,1018.9
2022-10-23T01:42:07.840Z,1018.9
2022-10-23T01:43:07.376Z,1018.9
2022-10-23T01:44:06.471Z,1018.9
2022-10-23T01:45:04.943Z,1018.9
2022-10-23T01:46:05.779Z,1018.9
2022-10-23T01:47:04.047Z,1018.9
2022-10-23T01:48:03.721Z,1018.9
2022-10-23T01:49:03.283Z,1018.9
2022-10-23T01:50:04.691Z,1018.9
2022-10-23T01:51:04.593Z,1019.0
2022-10-23T01:52:05.473Z,1019.0
2022-10-23T01:53:02.787Z,1019.0
2022-10-23T01:54:05.015Z,1019.0
2022-10-23T01:55:00.982Z,1019.0
2022-10-23T01:56:04.942Z,1019.0
2022-10-23T01:57:02.521Z,1019.0
2022-10-23T01:58:02.834Z,1019.0
2022-10-23T01:59:05.458Z,1019.0
2022-10-23T02:00:05.844Z,1019.0
2022-10-23T02:01:05.123Z,1019.0
2022-10-23T02:02:03.432Z,1019.0
2022-10-23T02:03:02.095Z,1019.1
2022-10-23T02:04:04.919Z,1019.1
2022-10-23T02:05:06.836Z,1019.1
2022-10-23T02:06:01.352Z,1019.1
2022-10-23T02:07:01.474Z,1019.1
2022-10-23T02:08:01.784Z,1019.1
2022-10-23T02:09:01.417Z,1019.1
2022-10-23T02:10:03.068Z,1019.1
2022-10-23T02:11:07.233Z,1019.2
2022-10-23T02:12:07.166Z,1019.2
2022-10-23T02:13:06.626Z,1019.2
2022-10-23T02:14:09.162Z,1019.2
2022-10-23T02:15:09.165Z,1019.3
2022-10-23T02:16:08.316Z,1019.3
2022-10-23T02:17:08.266Z,1019.3
2022-10-23T02:18:07.977Z,1019.4
2022-10-23T02:19:10.213Z,1019.4
2022-10-23T02:20:13.372Z,1019.4
2022-10-23T02:21:09.426Z,1019.4
2022-10-23T02:22:07.231Z,1019.5
2022-10-23T02:23:12.111Z,1019.5
2022-10-23T02:24:06.588Z,1019.4
2022-10-23T02:25:10.103Z,1019.4
2022-10-23T02:26:07.086Z,1019.4
2022-10-23T02:27:04.900Z,1019.4
2022-10-23T02:28:07.551Z,1019.4
2022-10-23T02:29:08.249Z,1019.5
2022-10-23T02:30:05.267Z,1019.5
2022-10-23T02:31:03.293Z,1019.5
2022-10-23T02:32:01.570Z,1019.6
2022-10-23T02:33:03.350Z,1019.6
2022-10-23T02:34:01.578Z,1019.5
2022-10-23T02:35:01.972Z,1019.5
2022-10-23T02:36:01.546Z,1019.5
2022-10-23T02:37:01.810Z,1019.5
2022-10-23T02:38:01.540Z,1019.5
2022-10-23T02:39:00.961Z,1019.4
2022-10-23T02:40:01.769Z,1019.4
2022-10-23T02:41:13.913Z,1019.3
2022-10-23T02:42:07.971Z,1019.3
2022-10-23T02:43:09.081Z,1019.2
2022-10-23T02:44:14.161Z,1019.3
2022-10-23T02:45:08.031Z,1019.2
2022-10-23T02:46:12.023Z,1019.2
2022-10-23T02:47:09.855Z,1019.2
2022-10-23T02:48:11.874Z,1019.2
2022-10-23T02:49:10.227Z,1019.2
2022-10-23T02:50:08.786Z,1019.2
2022-10-23T02:51:09.476Z,1019.2
2022-10-23T02:52:08.701Z,1019.2
2022-10-23T02:53:14.138Z,1019.2
2022-10-23T02:54:07.736Z,1019.2
2022-10-23T02:55:13.737Z,1019.2
2022-10-23T02:56:08.305Z,1019.3
2022-10-23T02:57:07.938Z,1019.3
2022-10-23T02:58:08.572Z,1019.3
2022-10-23T02:59:10.065Z,1019.4
2022-10-23T03:00:05.798Z,1019.4
2022-10-23T03:01:08.264Z,1019.4
2022-10-23T03:02:07.319Z,1019.5
2022-10-23T03:03:09.412Z,1019.4
2022-10-23T03:04:04.685Z,1019.4
2022-10-23T03:05:03.709Z,1019.5
2022-10-23T03:06:01.859Z,1019.4
2022-10-23T03:07:01.543Z,1019.4
2022-10-23T03:08:03.475Z,1019.3
2022-10-23T03:09:04.647Z,1019.3
2022-10-23T03:10:01.565Z,1019.4
2022-10-23T03:11:01.222Z,1019.4
2022-10-23T03:12:01.232Z,1019.4
2022-10-23T03:13:01.318Z,1019.4
2022-10-23T03:14:01.071Z,1019.5
2022-10-23T03:15:00.948Z,1019.5
2022-10-23T03:16:00.908Z,1019.6
2022-10-23T03:17:01.278Z,1019.6
2022-10-23T03:18:01.435Z,1019.6
2022-10-23T03:19:01.296Z,1019.6
2022-10-23T03:20:00.977Z,1019.6
2022-10-23T03:21:01.215Z,1019.6
2022-10-23T03:22:01.228Z,1019.6
2022-10-23T03:23:01.604Z,1019.6
2022-10-23T03:24:01.184Z,1019.6
2022-10-23T03:25:01.513Z,1019.6
2022-10-23T03:26:01.190Z,1019.6
2022-10-23T03:27:01.216Z,1019.6
2022-10-23T03:28:00.921Z,1019.6
2022-10-23T03:29:01.280Z,1019.5
2022-10-23T03:30:01.681Z,1019.5
2022-10-23T03:31:01.420Z,1019.5
2022-10-23T03:32:00.917Z,1019.5
2022-10-23T03:33:00.948Z,1019.5
2022-10-23T03:34:02.228Z,1019.5
2022-10-23T03:35:01.064Z,1019.5
2022-10-23T03:36:01.202Z,1019.5
2022-10-23T03:37:01.203Z,1019.5
2022-10-23T03:38:01.232Z,1019.6
2022-10-23T03:39:01.479Z,1019.6
2022-10-23T03:40:01.828Z,1019.5
2022-10-23T03:41:01.240Z,1019.5
2022-10-23T03:42:01.251Z,1019.6
2022-10-23T03:43:01.219Z,1019.5
2022-10-23T03:44:01.319Z,1019.4
2022-10-23T03:45:01.035Z,1019.5
2022-10-23T03:46:01.245Z,1019.5
2022-10-23T03:47:00.927Z,1019.5
2022-10-23T03:48:00.911Z,1019.5
2022-10-23T03:49:00.928Z,1019.5
2022-10-23T03:50:01.467Z,1019.5
2022-10-23T03:51:01.471Z,1019.5
2022-10-23T03:52:00.987Z,1019.4
2022-10-23T03:53:01.316Z,1019.4
2022-10-23T03:54:01.752Z,1019.4
2022-10-23T03:55:01.263Z,1019.4
2022-10-23T03:56:01.158Z,1019.4
2022-10-23T03:57:01.256Z,1019.4
2022-10-23T03:58:01.203Z,1019.4
2022-10-23T03:59:01.085Z,1019.3
2022-10-23T04:00:01.273Z,1019.3
2022-10-23T04:01:01.345Z,1019.4
2022-10-23T04:02:01.441Z,1019.3
2022-10-23T04:03:01.215Z,1019.3
2022-10-23T04:04:02.058Z,1019.3
2022-10-23T04:05:01.223Z,1019.3
2022-10-23T04:06:01.214Z,1019.3
2022-10-23T04:07:01.212Z,1019.3
2022-10-23T04:08:01.243Z,1019.3
2022-10-23T04:09:01.324Z,1019.3
2022-10-23T04:10:01.412Z,1019.3
2022-10-23T04:11:01.207Z,1019.4
2022-10-23T04:12:01.291Z,1019.4
2022-10-23T04:13:01.175Z,1019.4
2022-10-23T04:14:00.968Z,1019.3
2022-10-23T04:15:01.263Z,1019.4
2022-10-23T04:16:01.481Z,1019.4
2022-10-23T04:17:01.192Z,1019.4
2022-10-23T04:18:01.236Z,1019.4
2022-10-23T04:19:01.217Z,1019.4
2022-10-23T04:20:01.223Z,1019.3
2022-10-23T04:21:00.937Z,1019.4
2022-10-23T04:22:00.983Z,1019.4
2022-10-23T04:23:01.214Z,1019.4
2022-10-23T04:24:01.402Z,1019.4
2022-10-23T04:25:01.410Z,1019.4
2022-10-23T04:26:00.972Z,1019.4
2022-10-23T04:27:01.084Z,1019.4
2022-10-23T04:28:01.208Z,1019.4
2022-10-23T04:29:01.296Z,1019.4
2022-10-23T04:30:01.342Z,1019.5
2022-10-23T04:31:00.906Z,1019.5
2022-10-23T04:32:00.952Z,1019.5
2022-10-23T04:33:01.239Z,1019.4
2022-10-23T04:34:00.978Z,1019.4
2022-10-23T04:35:01.392Z,1019.4
2022-10-23T04:36:01.190Z,1019.4
2022-10-23T04:37:00.943Z,1019.4
2022-10-23T04:38:01.789Z,1019.4
2022-10-23T04:39:00.905Z,1019.4
2022-10-23T04:40:00.913Z,1019.4
2022-10-23T04:41:01.218Z,1019.4
2022-10-23T04:42:01.232Z,1019.4
2022-10-23T04:43:01.024Z,1019.4
2022-10-23T04:44:01.217Z,1019.4
2022-10-23T04:45:01.006Z,1019.4
2022-10-23T04:46:01.482Z,1019.4
2022-10-23T04:47:01.206Z,1019.3
2022-10-23T04:48:01.199Z,1019.3
2022-10-23T04:49:01.231Z,1019.3
2022-10-23T04:50:00.949Z,1019.3
2022-10-23T04:51:04.172Z,1019.3
2022-10-23T04:52:01.204Z,1019.3
2022-10-23T04:53:01.197Z,1019.3
2022-10-23T04:54:01.248Z,1019.3
2022-10-23T04:55:00.911Z,1019.3
2022-10-23T04:56:01.846Z,1019.3
2022-10-23T04:57:01.179Z,1019.3
2022-10-23T04:58:01.205Z,1019.3
2022-10-23T04:59:01.414Z,1019.3
2022-10-23T05:00:00.984Z,1019.4
2022-10-23T05:01:01.332Z,1019.4
2022-10-23T05:02:01.223Z,1019.4
2022-10-23T05:03:01.196Z,1019.4
2022-10-23T05:04:01.449Z,1019.4
2022-10-23T05:05:01.227Z,1019.3
2022-10-23T05:06:01.209Z,1019.4
2022-10-23T05:07:01.427Z,1019.3
2022-10-23T05:08:01.391Z,1019.3
2022-10-23T05:09:01.202Z,1019.4
2022-10-23T05:10:01.234Z,1019.4
2022-10-23T05:11:01.292Z,1019.4
2022-10-23T05:12:00.929Z,1019.4
2022-10-23T05:13:00.944Z,1019.4
2022-10-23T05:14:01.205Z,1019.4
2022-10-23T05:15:00.923Z,1019.4
2022-10-23T05:16:01.303Z,1019.5
2022-10-23T05:17:06.179Z,1019.5
2022-10-23T05:18:07.998Z,1019.5
2022-10-23T05:19:02.559Z,1019.5
2022-10-23T05:20:04.490Z,1019.5
2022-10-23T05:21:05.935Z,1019.5
2022-10-23T05:22:03.002Z,1019.5
2022-10-23T05:23:02.073Z,1019.5
2022-10-23T05:24:01.065Z,1019.6
2022-10-23T05:25:01.565Z,1019.6
2022-10-23T05:26:01.341Z,1019.6
2022-10-23T05:27:00.940Z,1019.6
2022-10-23T05:28:00.921Z,1019.6
2022-10-23T05:29:01.228Z,1019.7
2022-10-23T05:30:01.257Z,1019.7
2022-10-23T05:31:04.522Z,1019.7
2022-10-23T05:32:06.071Z,1019.8
2022-10-23T05:33:02.585Z,1019.8
2022-10-23T05:34:00.975Z,1019.8
2022-10-23T05:35:05.776Z,1019.8
2022-10-23T05:36:02.165Z,1019.8
2022-10-23T05:37:01.679Z,1019.8
2022-10-23T05:38:02.090Z,1019.8
2022-10-23T05:39:01.793Z,1019.8
2022-10-23T05:40:00.945Z,1019.9
2022-10-23T05:41:01.539Z,1019.8
2022-10-23T05:42:01.242Z,1019.9
2022-10-23T05:43:01.216Z,1019.8
2022-10-23T05:44:01.225Z,1019.8
2022-10-23T05:45:00.931Z,1019.8
2022-10-23T05:46:04.259Z,1019.9
2022-10-23T05:47:01.203Z,1019.9
2022-10-23T05:48:10.774Z,1019.9
2022-10-23T05:49:01.235Z,1019.9
2022-10-23T05:50:01.244Z,1019.9
2022-10-23T05:51:02.788Z,1019.9
2022-10-23T05:52:01.564Z,1019.9
2022-10-23T05:53:00.919Z,1019.9
2022-10-23T05:54:00.924Z,1019.9
2022-10-23T05:55:00.963Z,1019.8
2022-10-23T05:56:04.027Z,1019.9
2022-10-23T05:57:00.914Z,1019.9
2022-10-23T05:58:01.738Z,1019.8
2022-10-23T05:59:01.431Z,1019.8
2022-10-23T06:00:01.238Z,1019.8
2022-10-23T06:01:04.955Z,1019.8
2022-10-23T06:02:01.287Z,1019.8
2022-10-23T06:03:01.833Z,1019.8
2022-10-23T06:04:02.091Z,1019.8
2022-10-23T06:05:01.402Z,1019.8
2022-10-23T06:06:01.234Z,1019.8
2022-10-23T06:07:01.260Z,1019.8
2022-10-23T06:08:00.929Z,1019.7
2022-10-23T06:09:01.456Z,1019.8
2022-10-23T06:10:01.097Z,1019.8
2022-10-23T06:11:06.360Z,1019.8
2022-10-23T06:12:01.399Z,1019.8
2022-10-23T06:13:01.217Z,1019.8
2022-10-23T06:14:01.284Z,1019.8
2022-10-23T06:15:00.954Z,1019.8
2022-10-23T06:16:09.731Z,1019.8
2022-10-23T06:17:01.299Z,1019.8
2022-10-23T06:18:01.653Z,1019.8
2022-10-23T06:19:00.973Z,1019.8
2022-10-23T06:20:01.249Z,1019.8
2022-10-23T06:21:01.505Z,1019.8
2022-10-23T06:22:00.921Z,1019.8
2022-10-23T06:23:01.181Z,1019.8
2022-10-23T06:24:01.224Z,1019.8
2022-10-23T06:25:01.115Z,1019.8
2022-10-23T06:26:02.188Z,1019.8
2022-10-23T06:27:00.958Z,1019.8
2022-10-23T06:28:00.916Z,1019.8
2022-10-23T06:29:01.199Z,1019.8
2022-10-23T06:30:00.918Z,1019.8
2022-10-23T06:31:03.927Z,1019.7
2022-10-23T06:32:01.209Z,1019.8
2022-10-23T06:33:03.328Z,1019.7
2022-10-23T06:34:01.267Z,1019.8
2022-10-23T06:35:01.219Z,1019.8
2022-10-23T06:36:01.572Z,1019.7
2022-10-23T06:37:01.219Z,1019.7
2022-10-23T06:38:00.937Z,1019.7
2022-10-23T06:39:00.926Z,1019.7
2022-10-23T06:40:00.923Z,1019.7
2022-10-23T06:41:00.896Z,1019.6
2022-10-23T06:42:01.217Z,1019.6
2022-10-23T06:43:01.212Z,1019.7
2022-10-23T06:44:01.220Z,1019.6
2022-10-23T06:45:04.791Z,1019.6
2022-10-23T06:46:02.280Z,1019.6
2022-10-23T06:47:01.303Z,1019.6
2022-10-23T06:48:00.939Z,1019.5
2022-10-23T06:49:01.279Z,1019.5
2022-10-23T06:50:00.931Z,1019.5
2022-10-23T06:51:05.602Z,1019.6
2022-10-23T06:52:01.229Z,1019.6
2022-10-23T06:53:01.246Z,1019.7
2022-10-23T06:54:01.234Z,1019.6
2022-10-23T06:55:00.901Z,1019.6
2022-10-23T06:56:02.983Z,1019.6
2022-10-23T06:57:01.217Z,1019.6
2022-10-23T06:58:01.036Z,1019.6
2022-10-23T06:59:01.310Z,1019.6
2022-10-23T07:00:01.324Z,1019.6
2022-10-23T07:01:03.459Z,1019.6
2022-10-23T07:02:00.908Z,1019.6
2022-10-23T07:03:01.231Z,1019.6
2022-10-23T07:04:01.488Z,1019.7
2022-10-23T07:05:01.399Z,1019.6
2022-10-23T07:06:02.204Z,1019.6
2022-10-23T07:07:01.200Z,1019.6
2022-10-23T07:08:01.381Z,1019.5
2022-10-23T07:09:01.582Z,1019.5
2022-10-23T07:10:00.968Z,1019.5
2022-10-23T07:11:03.569Z,1019.5
2022-10-23T07:12:01.214Z,1019.4
2022-10-23T07:13:01.239Z,1019.4
2022-10-23T07:14:01.197Z,1019.4
2022-10-23T07:15:01.353Z,1019.4
2022-10-23T07:16:09.730Z,1019.4
2022-10-23T07:17:01.398Z,1019.4
2022-10-23T07:18:01.248Z,1019.4
2022-10-23T07:19:01.270Z,1019.4
2022-10-23T07:20:01.473Z,1019.4
2022-10-23T07:21:01.213Z,1019.5
2022-10-23T07:22:01.221Z,1019.4
2022-10-23T07:23:01.232Z,1019.4
2022-10-23T07:24:02.461Z,1019.4
2022-10-23T07:25:00.913Z,1019.4
2022-10-23T07:26:05.016Z,1019.3
2022-10-23T07:27:00.906Z,1019.4
2022-10-23T07:28:01.212Z,1019.4
2022-10-23T07:29:01.248Z,1019.3
2022-10-23T07:30:01.207Z,1019.3
2022-10-23T07:31:01.710Z,1019.4
2022-10-23T07:32:00.969Z,1019.3
2022-10-23T07:33:00.947Z,1019.3
2022-10-23T07:34:00.947Z,1019.4
2022-10-23T07:35:01.254Z,1019.3
2022-10-23T07:36:03.710Z,1019.4
2022-10-23T07:37:01.209Z,1019.4
2022-10-23T07:38:01.293Z,1019.4
2022-10-23T07:39:01.282Z,1019.4
2022-10-23T07:40:01.202Z,1019.3
2022-10-23T07:41:01.101Z,1019.4
2022-10-23T07:42:01.520Z,1019.4
2022-10-23T07:43:01.210Z,1019.4
2022-10-23T07:44:01.234Z,1019.4
2022-10-23T07:45:01.065Z,1019.4
2022-10-23T07:46:01.589Z,1019.4
2022-10-23T07:47:01.179Z,1019.4
2022-10-23T07:48:01.204Z,1019.3
2022-10-23T07:49:01.202Z,1019.3
2022-10-23T07:50:01.236Z,1019.3
2022-10-23T07:51:03.838Z,1019.3
2022-10-23T07:52:01.214Z,1019.3
2022-10-23T07:53:01.250Z,1019.3
2022-10-23T07:54:01.210Z,1019.3
2022-10-23T07:55:01.361Z,1019.3
2022-10-23T07:56:03.646Z,1019.3
2022-10-23T07:57:01.238Z,1019.3
2022-10-23T07:58:01.255Z,1019.3
2022-10-23T07:59:01.211Z,1019.3
2022-10-23T08:00:01.203Z,1019.3
2022-10-23T08:01:03.325Z,1019.4
2022-10-23T08:02:01.038Z,1019.4
2022-10-23T08:03:01.214Z,1019.4
2022-10-23T08:04:01.103Z,1019.3
2022-10-23T08:05:01.229Z,1019.4
2022-10-23T08:06:01.240Z,1019.3
2022-10-23T08:07:01.223Z,1019.3
2022-10-23T08:08:01.230Z,1019.3
2022-10-23T08:09:05.330Z,1019.3
2022-10-23T08:10:01.316Z,1019.2
2022-10-23T08:11:01.300Z,1019.2
2022-10-23T08:12:01.289Z,1019.2
2022-10-23T08:13:01.367Z,1019.3
2022-10-23T08:14:02.169Z,1019.2
2022-10-23T08:15:01.135Z,1019.2
2022-10-23T08:16:01.231Z,1019.2
2022-10-23T08:18:01.222Z,1019.2
2022-10-23T08:19:02.410Z,1019.3
2022-10-23T08:20:01.220Z,1019.2
2022-10-23T08:21:03.233Z,1019.2
2022-10-23T08:22:01.246Z,1019.2
2022-10-23T08:23:01.195Z,1019.2
2022-10-23T08:24:01.243Z,1019.2
2022-10-23T08:25:01.225Z,1019.2
2022-10-23T08:26:03.623Z,1019.2
2022-10-23T08:27:00.907Z,1019.3
2022-10-23T08:28:04.243Z,1019.3
2022-10-23T08:29:01.275Z,1019.3
2022-10-23T08:30:01.271Z,1019.3
2022-10-23T08:31:07.842Z,1019.3
2022-10-23T08:32:01.306Z,1019.3
2022-10-23T08:33:02.587Z,1019.3
2022-10-23T08:34:01.208Z,1019.3
2022-10-23T08:35:00.921Z,1019.3
2022-10-23T08:36:01.232Z,1019.4
2022-10-23T08:37:01.318Z,1019.4
2022-10-23T08:38:01.237Z,1019.4
2022-10-23T08:39:01.602Z,1019.4
2022-10-23T08:40:00.984Z,1019.4
2022-10-23T08:41:01.274Z,1019.4
2022-10-23T08:42:01.429Z,1019.4
2022-10-23T08:43:06.021Z,1019.5
2022-10-23T08:44:08.946Z,1019.5
2022-10-23T08:45:06.929Z,1019.5
2022-10-23T08:46:08.615Z,1019.5
2022-10-23T08:47:07.497Z,1019.5
2022-10-23T08:48:09.797Z,1019.5
2022-10-23T08:49:17.900Z,1019.5
2022-10-23T08:50:07.637Z,1019.5
2022-10-23T08:51:12.477Z,1019.5
2022-10-23T08:52:09.137Z,1019.5
2022-10-23T08:53:10.420Z,1019.6
2022-10-23T08:54:10.694Z,1019.7
2022-10-23T08:55:13.095Z,1019.6
2022-10-23T08:56:06.065Z,1019.6
2022-10-23T08:57:08.467Z,1019.7
2022-10-23T08:58:06.372Z,1019.8
2022-10-23T08:59:10.631Z,1019.8
2022-10-23T09:00:05.187Z,1019.8
2022-10-23T09:01:12.160Z,1019.8
2022-10-23T09:02:10.072Z,1019.7
2022-10-23T09:03:04.501Z,1019.7
2022-10-23T09:04:02.802Z,1019.7
2022-10-23T09:05:01.319Z,1019.7
2022-10-23T09:06:07.414Z,1019.7
2022-10-23T09:07:12.233Z,1019.6
2022-10-23T09:08:13.906Z,1019.6
2022-10-23T09:09:16.752Z,1019.6
2022-10-23T09:10:13.716Z,1019.6
2022-10-23T09:11:05.709Z,1019.6
2022-10-23T09:12:06.848Z,1019.7
2022-10-23T09:13:14.287Z,1019.7
2022-10-23T09:14:20.395Z,1019.7
2022-10-23T09:15:17.531Z,1019.7
2022-10-23T09:16:08.922Z,1019.7
2022-10-23T09:18:10.432Z,1019.7
2022-10-23T09:19:01.636Z,1019.7
2022-10-23T09:20:13.124Z,1019.6
2022-10-23T09:21:02.027Z,1019.6
2022-10-23T09:22:01.561Z,1019.6
2022-10-23T09:23:07.125Z,1019.6
2022-10-23T09:24:01.196Z,1019.6
2022-10-23T09:25:00.933Z,1019.7
2022-10-23T09:26:01.681Z,1019.7
2022-10-23T09:27:01.281Z,1019.6
2022-10-23T09:28:05.203Z,1019.6
2022-10-23T09:29:13.704Z,1019.6
2022-10-23T09:30:00.934Z,1019.6
2022-10-23T09:31:06.812Z,1019.6
2022-10-23T09:32:05.223Z,1019.6
2022-10-23T09:33:12.910Z,1019.6
2022-10-23T09:34:01.468Z,1019.6
2022-10-23T09:35:01.286Z,1019.5
2022-10-23T09:36:03.646Z,1019.4
2022-10-23T09:37:03.468Z,1019.4
2022-10-23T09:38:01.204Z,1019.4
2022-10-23T09:39:01.288Z,1019.5
2022-10-23T09:40:11.651Z,1019.6
2022-10-23T09:41:06.241Z,1019.6
2022-10-23T09:42:11.743Z,1019.6
2022-10-23T09:43:03.941Z,1019.6
2022-10-23T09:44:16.555Z,1019.6
2022-10-23T09:45:00.963Z,1019.6
2022-10-23T09:46:02.797Z,1019.5
2022-10-23T09:47:09.947Z,1019.5
2022-10-23T09:48:10.039Z,1019.5
2022-10-23T09:49:03.589Z,1019.5
2022-10-23T09:50:00.898Z,1019.5
2022-10-23T09:51:03.019Z,1019.5
2022-10-23T09:52:03.929Z,1019.5
2022-10-23T09:53:01.704Z,1019.5
2022-10-23T09:54:01.788Z,1019.5
2022-10-23T09:55:12.201Z,1019.5
2022-10-23T09:56:04.479Z,1019.5
2022-10-23T09:57:12.533Z,1019.6
2022-10-23T09:58:01.382Z,1019.6
2022-10-23T09:59:04.219Z,1019.6
2022-10-23T10:00:06.079Z,1019.6
2022-10-23T10:01:02.780Z,1019.6
2022-10-23T10:02:02.112Z,1019.6
2022-10-23T10:03:03.688Z,1019.6
2022-10-23T10:04:01.582Z,1019.7
2022-10-23T10:05:20.371Z,1019.7
2022-10-23T10:06:03.513Z,1019.7
2022-10-23T10:07:03.109Z,1019.6
2022-10-23T10:08:09.893Z,1019.7
2022-10-23T10:09:06.831Z,1019.7
2022-10-23T10:10:01.237Z,1019.7
2022-10-23T10:11:06.375Z,1019.8
2022-10-23T10:12:17.400Z,1019.8
2022-10-23T10:13:04.751Z,1019.8
2022-10-23T10:14:14.000Z,1019.8
2022-10-23T10:15:10.593Z,1019.8
2022-10-23T10:16:06.045Z,1019.8
2022-10-23T10:17:05.676Z,1019.8
2022-10-23T10:18:13.539Z,1019.9
2022-10-23T10:19:10.169Z,1019.9
2022-10-23T10:20:18.229Z,1019.9
2022-10-23T10:21:06.809Z,1019.9
2022-10-23T10:22:11.019Z,1019.9
2022-10-23T10:23:06.745Z,1019.9
2022-10-23T10:24:07.793Z,1019.9
2022-10-23T10:25:08.644Z,1019.9
2022-10-23T10:26:11.212Z,1019.9
2022-10-23T10:27:11.158Z,1019.9
2022-10-23T10:28:19.087Z,1019.9
2022-10-23T10:29:16.057Z,1019.9
2022-10-23T10:30:07.505Z,1019.9
2022-10-23T10:31:14.648Z,1020.0
2022-10-23T10:32:12.205Z,1020.0
2022-10-23T10:33:08.606Z,1020.0
2022-10-23T10:34:12.953Z,1020.0
2022-10-23T10:35:13.955Z,1019.9
2022-10-23T10:36:09.955Z,1019.9
2022-10-23T10:37:06.805Z,1019.9
2022-10-23T10:38:19.300Z,1020.0
2022-10-23T10:39:03.800Z,1020.0
2022-10-23T10:40:12.814Z,1020.0
2022-10-23T10:41:19.459Z,1020.1
2022-10-23T10:42:20.403Z,1020.1
2022-10-23T10:43:18.054Z,1020.1
2022-10-23T10:44:20.399Z,1020.1
2022-10-23T10:45:14.298Z,1020.0
2022-10-23T10:46:11.254Z,1020.0
2022-10-23T10:47:11.108Z,1020.1
2022-10-23T10:48:15.742Z,1020.1
2022-10-23T10:49:10.179Z,1020.1
2022-10-23T10:50:14.813Z,1020.2
2022-10-23T10:51:05.029Z,1020.2
2022-10-23T10:52:09.940Z,1020.2
2022-10-23T10:53:17.487Z,1020.2
2022-10-23T10:54:16.427Z,1020.2
2022-10-23T10:55:15.198Z,1020.1
2022-10-23T10:56:04.361Z,1020.1
2022-10-23T10:57:12.949Z,1020.2
2022-10-23T10:58:05.000Z,1020.2
2022-10-23T10:59:04.063Z,1020.2
2022-10-23T11:00:05.464Z,1020.1
2022-10-23T11:01:05.389Z,1020.1
2022-10-23T11:02:15.016Z,1020.1
2022-10-23T11:03:10.602Z,1020.1
2022-10-23T11:04:09.556Z,1020.1
2022-10-23T11:05:10.309Z,1020.1
2022-10-23T11:06:04.189Z,1020.1
2022-10-23T11:07:06.712Z,1020.1
2022-10-23T11:08:06.261Z,1020.2
2022-10-23T11:09:20.408Z,1020.2
2022-10-23T11:10:12.530Z,1020.2
2022-10-23T11:11:10.889Z,1020.2
2022-10-23T11:12:01.218Z,1020.2
2022-10-23T11:13:02.161Z,1020.2
2022-10-23T11:14:01.770Z,1020.2
2022-10-23T11:15:00.978Z,1020.2
2022-10-23T11:16:04.978Z,1020.2
2022-10-23T11:17:08.258Z,1020.2
2022-10-23T11:18:06.302Z,1020.2
2022-10-23T11:19:11.360Z,1020.1
2022-10-23T11:20:13.230Z,1020.1
2022-10-23T11:21:09.295Z,1020.1
2022-10-23T11:22:09.909Z,1020.1
2022-10-23T11:23:17.118Z,1020.1
2022-10-23T11:24:14.095Z,1020.2
2022-10-23T11:25:17.477Z,1020.2
2022-10-23T11:26:18.851Z,1020.2
2022-10-23T11:27:17.413Z,1020.2
2022-10-23T11:28:12.456Z,1020.2
2022-10-23T11:29:17.226Z,1020.2
2022-10-23T11:30:20.395Z,1020.2
2022-10-23T11:31:15.773Z,1020.2
2022-10-23T11:32:20.532Z,1020.2
2022-10-23T11:33:20.418Z,1020.2
2022-10-23T11:34:16.671Z,1020.3
2022-10-23T11:35:19.320Z,1020.3
2022-10-23T11:36:07.297Z,1020.3
2022-10-23T11:37:02.823Z,1020.3
2022-10-23T11:38:16.959Z,1020.3
2022-10-23T11:39:19.760Z,1020.2
2022-10-23T11:40:20.427Z,1020.2
2022-10-23T11:41:04.755Z,1020.2
2022-10-23T11:42:12.622Z,1020.3
2022-10-23T11:43:01.143Z,1020.3
2022-10-23T11:44:01.613Z,1020.3
2022-10-23T11:45:01.324Z,1020.3
2022-10-23T11:46:12.086Z,1020.3
2022-10-23T11:47:04.272Z,1020.3
2022-10-23T11:48:03.462Z,1020.3
2022-10-23T11:49:02.638Z,1020.3
2022-10-23T11:50:12.565Z,1020.2
2022-10-23T11:51:05.099Z,1020.2
2022-10-23T11:52:02.860Z,1020.2
2022-10-23T11:53:13.888Z,1020.2
2022-10-23T11:54:06.454Z,1020.3
2022-10-23T11:55:02.681Z,1020.3
2022-10-23T11:56:04.767Z,1020.4
2022-10-23T11:57:12.070Z,1020.5
2022-10-23T11:58:17.551Z,1020.5
2022-10-23T11:59:20.412Z,1020.4
2022-10-23T12:00:01.233Z,1020.4
2022-10-23T12:01:05.497Z,1020.4
2022-10-23T12:02:03.646Z,1020.4
2022-10-23T12:03:01.728Z,1020.4
2022-10-23T12:04:13.114Z,1020.4
2022-10-23T12:05:05.331Z,1020.4
2022-10-23T12:06:04.784Z,1020.4
2022-10-23T12:07:12.023Z,1020.5
2022-10-23T12:08:05.115Z,1020.5
2022-10-23T12:09:05.731Z,1020.6
2022-10-23T12:10:03.926Z,1020.6
2022-10-23T12:11:01.213Z,1020.6
2022-10-23T12:12:12.164Z,1020.5
2022-10-23T12:13:03.385Z,1020.5
2022-10-23T12:14:01.317Z,1020.5
2022-10-23T12:15:20.396Z,1020.5
2022-10-23T12:16:01.717Z,1020.5
2022-10-23T12:17:01.803Z,1020.6
2022-10-23T12:18:12.376Z,1020.6
2022-10-23T12:19:16.924Z,1020.6
2022-10-23T12:20:13.358Z,1020.7
2022-10-23T12:21:02.469Z,1020.7
2022-10-23T12:22:02.401Z,1020.7
2022-10-23T12:23:15.436Z,1020.7
2022-10-23T12:24:11.754Z,1020.7
2022-10-23T12:25:11.829Z,1020.8
2022-10-23T12:26:16.897Z,1020.8
2022-10-23T12:27:09.178Z,1020.9
2022-10-23T12:28:09.646Z,1020.9
2022-10-23T12:29:15.223Z,1021.0
2022-10-23T12:30:14.562Z,1021.0